createdAt,value
2017-09-21T00:00:41.496Z,10.57
2017-09-21T00:03:07.915Z,7.77
2017-09-21T00:05:34.252Z,9.73
2017-09-21T00:08:00.602Z,13.43
2017-09-21T00:10:26.918Z,13.27
2017-09-21T00:12:53.288Z,12.77
2017-09-21T00:15:19.836Z,5.20
2017-09-21T00:17:46.127Z,6.80
2017-09-21T00:20:12.460Z,6.03
2017-09-21T00:22:39.747Z,7.30
2017-09-21T00:25:06.052Z,5.93
2017-09-21T00:27:33.285Z,5.90
2017-09-21T00:30:00.423Z,9.77
2017-09-21T00:32:27.752Z,5.53
2017-09-21T00:34:54.064Z,5.00
2017-09-21T00:37:20.384Z,4.33
2017-09-21T00:39:47.275Z,13.80
2017-09-21T00:42:14.328Z,7.40
2017-09-21T00:44:40.646Z,8.10
2017-09-21T00:47:06.952Z,5.73
2017-09-21T00:49:34.575Z,7.00
2017-09-21T00:52:00.923Z,7.53
2017-09-21T00:54:27.929Z,8.27
2017-09-21T00:56:55.003Z,6.40
2017-09-21T00:59:21.327Z,4.63
2017-09-21T01:01:47.631Z,4.70
2017-09-21T01:04:14.728Z,3.80
2017-09-21T01:06:41.063Z,5.83
2017-09-21T01:09:07.455Z,9.90
2017-09-21T01:11:35.580Z,9.40
2017-09-21T01:14:01.884Z,7.73
2017-09-21T01:16:28.220Z,9.13
2017-09-21T01:18:54.558Z,6.20
2017-09-21T01:21:20.906Z,4.33
2017-09-21T01:23:48.619Z,4.80
2017-09-21T01:26:14.964Z,7.23
2017-09-21T01:28:41.984Z,7.37
2017-09-21T01:31:08.972Z,5.27
2017-09-21T01:33:36.055Z,5.70
2017-09-21T01:36:02.477Z,4.60
2017-09-21T01:38:29.620Z,11.57
2017-09-21T01:40:56.720Z,8.00
2017-09-21T01:43:23.603Z,4.40
2017-09-21T01:45:50.640Z,5.43
2017-09-21T01:48:29.401Z,4.77
2017-09-21T01:50:57.014Z,5.00
2017-09-21T01:53:23.424Z,8.63
2017-09-21T01:55:49.797Z,8.63
2017-09-21T01:58:16.246Z,6.73
2017-09-21T02:00:42.623Z,8.80
2017-09-21T02:03:09.808Z,5.87
2017-09-21T02:05:36.179Z,6.67
2017-09-21T02:08:02.523Z,7.20
2017-09-21T02:10:28.867Z,12.93
2017-09-21T02:12:55.388Z,5.60
2017-09-21T02:15:21.996Z,4.57
2017-09-21T02:17:48.312Z,4.07
2017-09-21T02:20:15.508Z,3.80
2017-09-21T02:22:42.372Z,8.37
2017-09-21T02:25:09.314Z,9.50
2017-09-21T02:27:36.514Z,5.33
2017-09-21T02:30:03.584Z,6.37
2017-09-21T02:32:29.931Z,4.63
2017-09-21T02:34:56.291Z,4.60
2017-09-21T02:37:22.597Z,4.40
2017-09-21T02:39:49.048Z,7.20
2017-09-21T02:42:16.022Z,13.97
2017-09-21T02:44:42.328Z,3.63
2017-09-21T02:47:08.673Z,3.40
2017-09-21T02:49:35.512Z,5.37
2017-09-21T02:52:01.833Z,4.00
2017-09-21T02:54:29.664Z,3.70
2017-09-21T02:56:55.960Z,5.33
2017-09-21T02:59:22.830Z,5.53
2017-09-21T03:01:49.142Z,3.80
2017-09-21T03:04:15.493Z,9.40
2017-09-21T03:06:41.838Z,3.90
2017-09-21T03:09:08.147Z,3.63
2017-09-21T03:11:34.579Z,3.60
2017-09-21T03:14:00.943Z,3.93
2017-09-21T03:16:27.843Z,3.80
2017-09-21T03:18:54.885Z,3.80
2017-09-21T03:21:21.198Z,4.80
2017-09-21T03:23:48.455Z,4.47
2017-09-21T03:26:16.326Z,5.13
2017-09-21T03:28:43.272Z,4.60
2017-09-21T03:31:09.573Z,4.93
2017-09-21T03:33:35.883Z,3.33
2017-09-21T03:36:02.972Z,3.80
2017-09-21T03:38:29.283Z,11.17
2017-09-21T03:40:56.427Z,4.10
2017-09-21T03:43:23.918Z,3.80
2017-09-21T03:45:50.804Z,9.27
2017-09-21T03:48:17.115Z,4.07
2017-09-21T03:50:44.181Z,4.47
2017-09-21T03:53:10.492Z,5.77
2017-09-21T03:55:36.803Z,4.23
2017-09-21T03:58:03.891Z,4.80
2017-09-21T04:00:30.229Z,3.50
2017-09-21T04:02:56.628Z,3.67
2017-09-21T04:05:24.060Z,3.30
2017-09-21T04:07:50.415Z,4.00
2017-09-21T04:10:16.820Z,4.40
2017-09-21T04:12:43.748Z,8.73
2017-09-21T04:15:10.091Z,6.93
2017-09-21T04:17:36.415Z,9.60
2017-09-21T04:20:04.012Z,5.30
2017-09-21T04:22:31.180Z,3.63
2017-09-21T04:24:58.120Z,11.00
2017-09-21T04:27:25.299Z,4.57
2017-09-21T04:29:51.676Z,6.60
2017-09-21T04:32:18.031Z,12.37
2017-09-21T04:34:44.387Z,8.80
2017-09-21T04:37:11.116Z,6.90
2017-09-21T04:39:37.819Z,5.40
2017-09-21T04:42:05.405Z,5.40
2017-09-21T04:44:32.196Z,7.80
2017-09-21T04:46:58.527Z,12.63
2017-09-21T04:49:25.470Z,7.40
2017-09-21T04:51:51.783Z,7.97
2017-09-21T04:54:18.148Z,6.83
2017-09-21T04:56:44.526Z,4.17
2017-09-21T04:59:12.356Z,7.30
2017-09-21T05:01:38.696Z,6.23
2017-09-21T05:04:05.024Z,7.87
2017-09-21T05:06:32.180Z,9.50
2017-09-21T05:08:58.503Z,8.37
2017-09-21T05:11:24.816Z,7.20
2017-09-21T05:13:51.150Z,6.10
2017-09-21T05:16:17.512Z,7.33
2017-09-21T05:18:44.682Z,4.90
2017-09-21T05:21:11.637Z,4.20
2017-09-21T05:23:38.684Z,7.30
2017-09-21T05:26:04.995Z,5.13
2017-09-21T05:28:31.360Z,6.37
2017-09-21T05:30:57.734Z,10.57
2017-09-21T05:33:24.791Z,9.10
2017-09-21T05:35:52.412Z,9.17
2017-09-21T05:38:18.764Z,9.13
2017-09-21T05:40:45.912Z,8.17
2017-09-21T05:43:12.966Z,5.10
2017-09-21T05:45:39.272Z,5.47
2017-09-21T05:48:05.603Z,5.30
2017-09-21T05:50:32.584Z,6.10
2017-09-21T05:52:58.878Z,7.67
2017-09-21T05:55:25.964Z,6.30
2017-09-21T05:57:52.279Z,9.53
2017-09-21T06:00:18.651Z,6.00
2017-09-21T06:02:45.406Z,4.23
2017-09-21T06:05:12.195Z,8.03
2017-09-21T06:07:38.492Z,5.97
2017-09-21T06:10:04.827Z,6.80
2017-09-21T06:12:31.163Z,9.10
2017-09-21T06:14:58.022Z,8.73
2017-09-21T06:17:25.049Z,9.40
2017-09-21T06:19:51.899Z,8.30
2017-09-21T06:22:18.236Z,5.60
2017-09-21T06:24:45.028Z,6.17
2017-09-21T06:27:12.080Z,4.43
2017-09-21T06:29:39.800Z,3.77
2017-09-21T06:32:06.847Z,4.30
2017-09-21T06:34:33.182Z,4.47
2017-09-21T06:36:59.495Z,6.80
2017-09-21T06:39:26.573Z,4.63
2017-09-21T06:41:53.335Z,4.40
2017-09-21T06:44:19.663Z,3.80
2017-09-21T06:46:45.992Z,5.00
2017-09-21T06:49:12.324Z,6.47
2017-09-21T06:51:39.387Z,3.80
2017-09-21T06:54:05.708Z,3.60
2017-09-21T06:56:32.019Z,4.27
2017-09-21T06:58:58.946Z,3.70
2017-09-21T07:01:26.032Z,6.00
2017-09-21T07:03:52.339Z,4.23
2017-09-21T07:06:19.416Z,3.30
2017-09-21T07:08:45.717Z,3.80
2017-09-21T07:11:12.134Z,4.33
2017-09-21T07:13:39.475Z,3.53
2017-09-21T07:16:06.472Z,3.60
2017-09-21T07:18:33.523Z,2.97
2017-09-21T07:21:00.943Z,6.80
2017-09-21T07:23:27.800Z,7.20
2017-09-21T07:25:54.140Z,4.43
2017-09-21T07:28:22.048Z,9.43
2017-09-21T07:30:49.563Z,4.30
2017-09-21T07:33:16.515Z,4.07
2017-09-21T07:35:43.525Z,6.30
2017-09-21T07:38:09.851Z,3.57
2017-09-21T07:40:37.108Z,4.23
2017-09-21T07:43:04.605Z,5.10
2017-09-21T07:45:37.758Z,3.87
2017-09-21T07:48:09.602Z,4.67
2017-09-21T07:50:36.326Z,4.93
2017-09-21T07:53:02.627Z,4.63
2017-09-21T07:55:28.923Z,5.43
2017-09-21T07:57:55.292Z,4.50
2017-09-21T08:00:21.635Z,4.80
2017-09-21T08:02:48.046Z,3.67
2017-09-21T08:05:15.259Z,4.40
2017-09-21T08:07:41.617Z,5.10
2017-09-21T08:10:08.036Z,4.07
2017-09-21T08:12:34.891Z,4.53
2017-09-21T08:15:01.528Z,4.67
2017-09-21T08:17:27.920Z,5.03
2017-09-21T08:19:54.959Z,8.07
2017-09-21T08:22:22.043Z,4.67
2017-09-21T08:24:48.792Z,4.80
2017-09-21T08:27:16.027Z,3.90
2017-09-21T08:29:43.071Z,5.90
2017-09-21T08:32:10.776Z,6.07
2017-09-21T08:34:37.756Z,11.37
2017-09-21T08:37:04.079Z,3.50
2017-09-21T08:39:30.394Z,4.07
2017-09-21T08:41:57.273Z,3.60
2017-09-21T08:44:23.587Z,3.90
2017-09-21T08:46:49.908Z,5.37
2017-09-21T08:49:16.236Z,5.27
2017-09-21T08:51:43.224Z,6.30
2017-09-21T08:54:09.560Z,8.33
2017-09-21T08:56:35.859Z,3.50
2017-09-21T08:59:02.208Z,3.13
2017-09-21T09:01:28.505Z,4.13
2017-09-21T09:03:54.912Z,4.80
2017-09-21T09:06:21.223Z,3.80
2017-09-21T09:08:47.522Z,4.13
2017-09-21T09:11:15.348Z,3.20
2017-09-21T09:13:41.664Z,3.57
2017-09-21T09:16:08.025Z,5.10
2017-09-21T09:18:34.383Z,4.10
2017-09-21T09:21:00.688Z,7.17
2017-09-21T09:23:27.544Z,8.07
2017-09-21T09:25:54.504Z,5.60
2017-09-21T09:28:21.286Z,9.57
2017-09-21T09:30:48.731Z,5.67
2017-09-21T09:33:15.654Z,5.13
2017-09-21T09:35:41.972Z,7.63
2017-09-21T09:38:08.327Z,6.23
2017-09-21T09:40:34.668Z,4.80
2017-09-21T09:43:01.709Z,6.77
2017-09-21T09:45:28.027Z,5.20
2017-09-21T09:47:54.332Z,9.60
2017-09-21T09:50:22.136Z,5.57
2017-09-21T09:52:48.451Z,4.77
2017-09-21T09:55:14.756Z,5.30
2017-09-21T09:57:41.324Z,6.60
2017-09-21T10:00:08.406Z,4.20
2017-09-21T10:02:35.166Z,7.43
2017-09-21T10:05:01.548Z,4.60
2017-09-21T10:07:28.591Z,4.77
2017-09-21T10:09:55.367Z,4.17
2017-09-21T10:12:21.670Z,3.97
2017-09-21T10:14:47.958Z,5.50
2017-09-21T10:17:14.926Z,7.40
2017-09-21T10:19:41.774Z,5.33
2017-09-21T10:22:08.133Z,5.90
2017-09-21T10:24:34.984Z,5.20
2017-09-21T10:27:02.118Z,6.17
2017-09-21T10:29:28.990Z,5.03
2017-09-21T10:31:55.300Z,7.70
2017-09-21T10:34:21.603Z,8.77
2017-09-21T10:36:47.950Z,6.27
2017-09-21T10:39:14.258Z,9.23
2017-09-21T10:41:41.972Z,9.17
2017-09-21T10:44:08.327Z,6.90
2017-09-21T10:46:35.264Z,10.30
2017-09-21T10:49:01.566Z,5.63
2017-09-21T10:51:28.480Z,8.73
2017-09-21T10:53:55.532Z,7.40
2017-09-21T10:56:21.868Z,10.20
2017-09-21T10:58:48.213Z,5.90
2017-09-21T11:01:15.796Z,6.93
2017-09-21T11:03:42.114Z,6.80
2017-09-21T11:06:10.538Z,5.90
2017-09-21T11:08:36.847Z,5.57
2017-09-21T11:11:03.888Z,10.63
2017-09-21T11:13:30.963Z,6.77
2017-09-21T11:15:57.264Z,5.00
2017-09-21T11:18:23.667Z,7.17
2017-09-21T11:20:50.563Z,8.90
2017-09-21T11:23:18.083Z,8.30
2017-09-21T11:25:45.144Z,8.80
2017-09-21T11:28:12.004Z,10.73
2017-09-21T11:30:38.301Z,9.43
2017-09-21T11:33:04.628Z,8.90
2017-09-21T11:35:30.995Z,7.17
2017-09-21T11:37:57.312Z,7.13
2017-09-21T11:40:23.694Z,8.57
2017-09-21T11:42:50.727Z,6.80
2017-09-21T11:45:17.576Z,8.50
2017-09-21T11:47:43.887Z,7.50
2017-09-21T11:50:10.963Z,5.77
2017-09-21T11:52:37.379Z,8.13
2017-09-21T11:55:04.143Z,7.60
2017-09-21T11:57:30.444Z,11.17
2017-09-21T11:59:56.775Z,10.93
2017-09-21T12:02:23.664Z,9.17
2017-09-21T12:04:50.391Z,9.80
2017-09-21T12:07:16.688Z,8.73
2017-09-21T12:09:43.740Z,7.57
2017-09-21T12:12:10.911Z,9.43
2017-09-21T12:14:37.214Z,9.23
2017-09-21T12:17:03.639Z,6.87
2017-09-21T12:19:30.680Z,8.17
2017-09-21T12:21:57.628Z,9.40
2017-09-21T12:24:24.475Z,8.10
2017-09-21T12:26:50.782Z,8.00
2017-09-21T12:29:17.088Z,9.13
2017-09-21T12:31:44.191Z,8.20
2017-09-21T12:34:10.526Z,6.93
2017-09-21T12:36:36.907Z,10.23
2017-09-21T12:39:03.316Z,7.00
2017-09-21T12:41:30.339Z,9.97
2017-09-21T12:43:57.320Z,6.80
2017-09-21T12:46:24.160Z,7.07
2017-09-21T12:48:50.476Z,8.90
2017-09-21T12:51:17.208Z,9.07
2017-09-21T12:53:43.531Z,7.13
2017-09-21T12:56:11.760Z,8.03
2017-09-21T12:58:38.068Z,8.03
2017-09-21T13:01:05.717Z,6.67
2017-09-21T13:03:32.022Z,5.43
2017-09-21T13:05:58.340Z,6.27
2017-09-21T13:08:24.768Z,9.23
2017-09-21T13:10:52.100Z,6.17
2017-09-21T13:13:18.502Z,8.80
2017-09-21T13:15:45.364Z,6.83
2017-09-21T13:18:12.476Z,7.00
2017-09-21T13:20:38.792Z,6.60
2017-09-21T13:23:06.356Z,6.90
2017-09-21T13:25:32.688Z,6.90
2017-09-21T13:27:59.783Z,6.07
2017-09-21T13:30:26.077Z,6.23
2017-09-21T13:32:52.433Z,6.10
2017-09-21T13:35:19.599Z,6.10
2017-09-21T13:37:46.854Z,6.90
2017-09-21T13:40:13.166Z,4.70
2017-09-21T13:42:40.275Z,6.83
2017-09-21T13:45:08.152Z,5.97
2017-09-21T13:47:35.418Z,6.73
2017-09-21T13:50:03.234Z,5.30
2017-09-21T13:52:29.552Z,7.20
2017-09-21T13:54:55.868Z,7.97
2017-09-21T13:57:22.209Z,7.97
2017-09-21T13:59:49.096Z,7.33
2017-09-21T14:02:16.272Z,4.73
2017-09-21T14:04:42.579Z,5.90
2017-09-21T14:07:08.907Z,5.37
2017-09-21T14:09:35.251Z,6.37
2017-09-21T14:12:01.564Z,9.33
2017-09-21T14:14:28.551Z,5.50
2017-09-21T14:16:54.864Z,7.53
2017-09-21T14:19:21.836Z,5.00
2017-09-21T14:21:48.147Z,5.20
2017-09-21T14:24:15.862Z,4.83
2017-09-21T14:26:43.607Z,6.07
2017-09-21T14:29:09.918Z,5.30
2017-09-21T14:31:36.220Z,5.60
2017-09-21T14:34:03.347Z,8.20
2017-09-21T14:36:30.575Z,5.50
2017-09-21T14:38:58.738Z,5.00
2017-09-21T14:41:26.132Z,6.93
2017-09-21T14:43:53.087Z,4.83
2017-09-21T14:46:21.263Z,4.73
2017-09-21T14:48:47.891Z,5.90
2017-09-21T14:51:15.075Z,8.20
2017-09-21T14:53:42.260Z,8.33
2017-09-21T14:56:10.107Z,11.80
2017-09-21T14:58:37.180Z,10.00
2017-09-21T15:01:04.223Z,14.67
2017-09-21T15:03:31.347Z,9.87
2017-09-21T15:05:58.296Z,5.47
2017-09-21T15:08:25.211Z,8.23
2017-09-21T15:10:52.530Z,7.90
2017-09-21T15:13:19.864Z,5.07
2017-09-21T15:15:47.064Z,6.07
2017-09-21T15:18:15.291Z,4.93
2017-09-21T15:20:42.420Z,6.00
2017-09-21T15:23:09.408Z,4.30
2017-09-21T15:25:36.871Z,5.50
2017-09-21T15:28:04.596Z,5.30
2017-09-21T15:30:31.899Z,6.03
2017-09-21T15:32:58.887Z,4.50
2017-09-21T15:35:26.299Z,4.90
2017-09-21T15:37:53.427Z,6.20
2017-09-21T15:40:20.656Z,4.73
2017-09-21T15:42:48.058Z,4.73
2017-09-21T15:45:14.918Z,4.80
2017-09-21T15:47:42.182Z,7.00
2017-09-21T15:50:09.444Z,10.17
2017-09-21T15:52:36.488Z,13.90
2017-09-21T15:55:03.708Z,11.03
2017-09-21T15:57:30.784Z,15.73
2017-09-21T15:59:58.365Z,14.17
2017-09-21T16:02:25.419Z,13.33
2017-09-21T16:04:52.372Z,9.60
2017-09-21T16:07:19.730Z,9.63
2017-09-21T16:09:46.886Z,7.67
2017-09-21T16:12:13.734Z,5.80
2017-09-21T16:14:40.782Z,5.03
2017-09-21T16:17:08.147Z,3.73
2017-09-21T16:19:35.039Z,11.90
2017-09-21T16:22:02.462Z,8.90
2017-09-21T16:24:29.300Z,7.70
2017-09-21T16:26:56.251Z,5.17
2017-09-21T16:29:23.611Z,3.03
2017-09-21T16:31:50.583Z,3.33
2017-09-21T16:34:17.745Z,4.33
2017-09-21T16:36:44.800Z,2.17
2017-09-21T16:39:12.542Z,2.70
2017-09-21T16:41:39.496Z,6.00
2017-09-21T16:44:06.446Z,5.23
2017-09-21T16:46:33.416Z,4.10
2017-09-21T16:48:59.780Z,3.40
2017-09-21T16:51:27.456Z,4.80
2017-09-21T16:53:53.896Z,4.40
2017-09-21T16:56:20.361Z,3.63
2017-09-21T16:58:46.763Z,2.60
2017-09-21T17:01:13.940Z,2.60
2017-09-21T17:03:40.391Z,3.97
2017-09-21T17:06:07.342Z,4.00
2017-09-21T17:08:33.750Z,4.80
2017-09-21T17:11:02.408Z,5.17
2017-09-21T17:13:28.824Z,5.63
2017-09-21T17:15:55.704Z,5.80
2017-09-21T17:18:22.139Z,4.53
2017-09-21T17:20:49.213Z,3.37
2017-09-21T17:23:17.242Z,3.20
2017-09-21T17:25:44.286Z,2.93
2017-09-21T17:28:10.628Z,2.63
2017-09-21T17:30:37.028Z,2.70
2017-09-21T17:33:03.492Z,3.67
2017-09-21T17:35:30.557Z,3.90
2017-09-21T17:37:56.933Z,3.40
2017-09-21T17:40:24.043Z,2.80
2017-09-21T17:42:51.415Z,3.40
2017-09-21T17:45:18.356Z,2.67
2017-09-21T17:47:44.676Z,3.40
2017-09-21T17:50:11.656Z,3.60
2017-09-21T17:52:37.995Z,3.50
2017-09-21T17:55:04.300Z,3.20
2017-09-21T17:57:30.646Z,2.80
2017-09-21T17:59:56.950Z,3.03
2017-09-21T18:02:23.414Z,4.00
2017-09-21T18:04:50.551Z,2.50
2017-09-21T18:07:18.508Z,2.70
2017-09-21T18:09:44.812Z,2.50
2017-09-21T18:12:11.347Z,1.87
2017-09-21T18:14:38.463Z,1.60
2017-09-21T18:17:05.431Z,2.40
2017-09-21T18:19:33.004Z,2.30
2017-09-21T18:21:59.380Z,2.87
2017-09-21T18:24:28.953Z,2.67
2017-09-21T18:26:55.299Z,2.03
2017-09-21T18:29:21.691Z,2.23
2017-09-21T18:31:48.070Z,1.90
2017-09-21T18:34:14.411Z,2.27
2017-09-21T18:36:41.037Z,3.07
2017-09-21T18:39:08.766Z,2.37
2017-09-21T18:41:35.934Z,3.97
2017-09-21T18:44:02.294Z,3.53
2017-09-21T18:46:29.980Z,2.87
2017-09-21T18:48:56.317Z,3.67
2017-09-21T18:51:23.156Z,3.30
2017-09-21T18:53:49.876Z,5.43
2017-09-21T18:56:16.205Z,4.53
2017-09-21T18:58:42.548Z,2.83
2017-09-21T19:01:09.629Z,9.23
2017-09-21T19:03:36.076Z,2.70
2017-09-21T19:06:03.028Z,2.37
2017-09-21T19:08:29.363Z,1.70
2017-09-21T19:10:56.417Z,2.00
2017-09-21T19:13:22.876Z,2.10
2017-09-21T19:15:49.187Z,2.13
2017-09-21T19:18:15.547Z,2.57
2017-09-21T19:20:42.591Z,2.33
2017-09-21T19:23:09.422Z,4.00
2017-09-21T19:25:35.728Z,2.20
2017-09-21T19:28:02.042Z,2.70
2017-09-21T19:30:29.428Z,2.67
2017-09-21T19:32:56.283Z,4.03
2017-09-21T19:35:23.640Z,4.70
2017-09-21T19:37:50.507Z,2.60
2017-09-21T19:40:17.568Z,2.70
2017-09-21T19:42:44.484Z,3.33
2017-09-21T19:45:11.468Z,3.47
2017-09-21T19:47:37.788Z,3.17
2017-09-21T19:50:04.845Z,6.53
2017-09-21T19:52:32.063Z,3.27
2017-09-21T19:54:58.444Z,2.40
2017-09-21T19:57:25.521Z,2.23
2017-09-21T19:59:52.462Z,2.90
2017-09-21T20:02:18.784Z,8.97
2017-09-21T20:04:45.085Z,4.40
2017-09-21T20:07:11.442Z,3.03
2017-09-21T20:09:38.340Z,2.20
2017-09-21T20:12:05.459Z,2.60
2017-09-21T20:14:35.220Z,2.50
2017-09-21T20:17:03.888Z,2.50
2017-09-21T20:19:30.535Z,2.10
2017-09-21T20:21:56.899Z,2.70
2017-09-21T20:24:23.583Z,3.40
2017-09-21T20:26:50.333Z,2.77
2017-09-21T20:29:16.644Z,4.10
2017-09-21T20:31:43.832Z,3.10
2017-09-21T20:34:11.235Z,3.13
2017-09-21T20:36:38.277Z,2.73
2017-09-21T20:39:05.366Z,3.37
2017-09-21T20:41:32.254Z,6.13
2017-09-21T20:43:59.395Z,2.00
2017-09-21T20:46:25.718Z,1.60
2017-09-21T20:48:52.784Z,1.67
2017-09-21T20:51:19.685Z,1.97
2017-09-21T20:53:46.003Z,3.40
2017-09-21T20:56:13.852Z,2.30
2017-09-21T20:58:40.179Z,2.93
2017-09-21T21:01:06.484Z,2.27
2017-09-21T21:03:33.363Z,3.67
2017-09-21T21:05:59.676Z,3.23
2017-09-21T21:08:25.975Z,2.63
2017-09-21T21:10:53.056Z,2.23
2017-09-21T21:13:19.749Z,2.50
2017-09-21T21:15:46.216Z,2.73
2017-09-21T21:18:15.374Z,2.37
2017-09-21T21:20:42.445Z,2.80
2017-09-21T21:23:09.680Z,2.60
2017-09-21T21:25:36.083Z,3.90
2017-09-21T21:28:02.552Z,2.80
2017-09-21T21:30:28.899Z,2.50
2017-09-21T21:32:55.748Z,2.30
2017-09-21T21:35:22.052Z,3.03
2017-09-21T21:37:48.367Z,2.47
2017-09-21T21:40:15.963Z,2.07
2017-09-21T21:42:42.715Z,2.27
2017-09-21T21:45:09.044Z,2.47
2017-09-21T21:47:35.381Z,5.80
2017-09-21T21:50:02.162Z,2.37
2017-09-21T21:52:28.971Z,2.80
2017-09-21T21:54:55.272Z,2.30
2017-09-21T21:57:22.340Z,1.87
2017-09-21T21:59:48.872Z,2.57
2017-09-21T22:02:16.408Z,2.67
2017-09-21T22:04:42.723Z,2.50
2017-09-21T22:07:09.023Z,2.00
2017-09-21T22:09:35.887Z,2.70
2017-09-21T22:12:02.192Z,2.97
2017-09-21T22:14:29.239Z,3.40
2017-09-21T22:16:56.331Z,2.63
2017-09-21T22:19:22.643Z,2.53
2017-09-21T22:21:49.027Z,2.00
2017-09-21T22:24:16.792Z,2.33
2017-09-21T22:26:44.355Z,2.60
2017-09-21T22:29:10.675Z,2.57
2017-09-21T22:31:38.147Z,2.30
2017-09-21T22:34:04.462Z,2.70
2017-09-21T22:36:30.821Z,2.40
2017-09-21T22:38:57.566Z,2.20
2017-09-21T22:41:23.857Z,2.17
2017-09-21T22:43:51.262Z,2.27
2017-09-21T22:46:17.611Z,4.30
2017-09-21T22:48:44.759Z,2.50
2017-09-21T22:51:11.606Z,9.20
2017-09-21T22:53:38.508Z,3.00
2017-09-21T22:56:05.547Z,2.70
2017-09-21T22:58:32.956Z,2.67
2017-09-21T23:00:59.299Z,2.90
2017-09-21T23:03:25.640Z,2.53
2017-09-21T23:05:51.969Z,2.57
2017-09-21T23:08:18.260Z,2.50
2017-09-21T23:10:45.411Z,2.50
2017-09-21T23:13:12.514Z,7.30
2017-09-21T23:15:38.822Z,3.10
2017-09-21T23:18:05.136Z,2.10
2017-09-21T23:20:32.211Z,2.30
2017-09-21T23:22:59.207Z,2.37
2017-09-21T23:25:25.508Z,2.53
2017-09-21T23:27:51.816Z,2.20
2017-09-21T23:30:18.967Z,2.40
2017-09-21T23:32:46.398Z,2.93
2017-09-21T23:35:13.331Z,2.50
2017-09-21T23:37:40.191Z,2.93
2017-09-21T23:40:06.496Z,3.80
2017-09-21T23:42:33.240Z,2.60
2017-09-21T23:45:00.422Z,2.30
2017-09-21T23:47:26.726Z,2.20
2017-09-21T23:49:53.012Z,3.80
2017-09-21T23:52:19.835Z,2.40
2017-09-21T23:54:46.136Z,2.70
2017-09-21T23:57:12.449Z,2.27
2017-09-21T23:59:39.524Z,2.77
